Eastern Shore: Past 24 Hour Conditions

 

J.A. Douglas McCurdy Sydney Airport

06:00 AM ADT 01 August 2015
Disclaimer

This table is a summary of hourly weather conditions for the past 24 hours.
Please note that these observations might not always be representative of weather conditions over their associated marine area.

Date / Time
(ADT)
Wind(knots) Conditions Visibility(km) Pressure(kPa) Air tempC) Relative humidity(%) Dew pointC) Humidex
01 August 2015
6:00 SW 8 Mist 6 100.5 16 100 16 *
5:00 SW 8 Fog 8 100.5 17 99 16 *
4:00 SW 6 Fog 0.8 100.5 17 100 17 *
3:00 SW 7 Fog 0.4 100.5 18 100 18 *
2:00 SW 8 Fog 0.4 100.6 18 100 18 *
1:00 SW 8 Fog 0.4 100.6 18 100 18 *
0:00 SW 6 Fog 0.8 100.6 19 99 18 *
31 July 2015
23:00 SW 9 Fog 0.8 100.6 19 99 19 *
22:00 SW 6 Mist 10 100.6 19 98 19 *
21:00 SW 7 Cloudy 16 100.5 20 96 19 *
20:00 SSW 9 Cloudy 16 100.5 20 94 19 27
19:00 SSW 11 gust 17 Partly Cloudy 24 100.5 22 91 20 29
18:00 SSW 11 gust 18 Mostly Cloudy 16 100.6 22 90 20 29
17:00 SSW 13 gust 20 Mostly Cloudy 16 100.6 21 89 19 28
16:00 S 10 gust 23 Mostly Cloudy 24 100.6 21 89 19 28
15:00 S 10 Light Rain 6 100.7 20 96 19 *
14:00 S 10 Light Rain 16 100.8 20 94 19 *
13:00 S 6 Mist 10 100.8 20 93 19 *
12:00 S 12 Mist 3 100.8 19 95 18 *
11:00 S 11 gust 17 Mist 6 100.9 20 93 18 *
10:00 S 11 Mist 6 100.9 19 95 18 *
9:00 S 7 Mist 2 101.0 18 99 17 *
8:00 SSW 6 Mist 1 101.0 16 100 16 *
7:00 S 5 Mist 1 101.0 15 100 15 *
6:00 S 6 Fog 0.8 101.0 14 100 14 *

Zoom-in to make a selection

Map of Atlantic - Newfoundland marine weather areas Southwestern Grand Banks - 44138 Banquereau - 44139 Tail of the Bank - 44140 Nickerson Bank - 44251 Northeast Burgeo Bank - 44255 Blanc-Sablon Airport Cap Whittle Chevery Natashquan Airport Heath Point Miscou Island Grand Étang Ingonish Beach North Mountain St.Paul Island J.A. Douglas McCurdy Sydney Airport Charlottetown Airport East Point North Cape Argentia Bonavista Burgeo Cape Race Corner Brook Daniel's Harbour Englee Ferolle Point La Scie Port aux Basques Rocky Harbour Sagona Island St. Anthony Airport St. John's Int'l Airport St. Lawrence Stephenville Airport Twillingate Winterland Wreckhouse Cartwright Airport Mary's Harbour Grates Cove Pool's Island Marticot Island Long Pond Eskasoni (First Nations) Îles de la Madeleine Airport
Legend:
buoy Buoy
land station Land Station

Atlantic - Newfoundland Area

Another Region

What we are doing

Date modified: